Time;durP1;ratioP1;P1;durP2;ratioP2;P2;SDS_P1;SDS_P2;PMS_P1;PMS_P2;Temp;Humidity;BMP_temperature;BMP_pressure;BME280_temperature;BME280_humidity;BME280_pressure;Samples;Min_cycle;Max_cycle;Signal;HPM_P1;HPM_P2
2022/04/27 00:02:18;;;;;;;9.93;9.10;;;;;;;-141.48;100.00;69781.59;5225189;28;20032;-92
2022/04/27 00:04:49;;;;;;;8.90;8.23;;;;;;;-141.48;100.00;69781.59;5242215;28;20029;-93
2022/04/27 00:07:22;;;;;;;7.78;7.25;;;;;;;-141.48;100.00;69781.59;5226018;28;20087;-93
2022/04/27 00:09:53;;;;;;;10.20;9.02;;;;;;;-141.48;100.00;69781.59;5226485;28;20023;-93
2022/04/27 00:12:25;;;;;;;9.80;9.05;;;;;;;-141.48;100.00;69781.59;5224729;28;20036;-93
2022/04/27 00:14:56;;;;;;;9.50;8.80;;;;;;;-141.48;100.00;69781.59;5223306;28;20093;-93
2022/04/27 00:17:27;;;;;;;11.95;10.30;;;;;;;-141.48;100.00;69781.59;5226398;28;20035;-92
2022/04/27 00:20:11;;;;;;;7.63;7.13;;;;;;;-141.48;100.00;69781.59;5228958;28;20032;-92
2022/04/27 00:22:42;;;;;;;15.27;7.57;;;;;;;-141.48;100.00;69781.59;5227950;28;20047;-93
2022/04/27 00:25:23;;;;;;;10.77;9.95;;;;;;;-141.48;100.00;69781.59;5233030;28;20013;-94
2022/04/27 00:27:54;;;;;;;10.82;9.90;;;;;;;-141.48;100.00;69781.59;5233876;28;20025;-94
2022/04/27 00:30:25;;;;;;;9.30;8.50;;;;;;;-141.48;100.00;69781.59;5232313;28;20032;-93
2022/04/27 00:32:59;;;;;;;10.13;9.38;;;;;;;-141.48;100.00;69781.59;5232638;28;20024;-92
2022/04/27 00:35:32;;;;;;;10.07;9.15;;;;;;;-141.48;100.00;69781.59;5231823;28;20043;-92
2022/04/27 00:38:03;;;;;;;10.98;9.85;;;;;;;-141.48;100.00;69781.59;5232764;28;20029;-92
2022/04/27 00:40:34;;;;;;;11.07;9.35;;;;;;;-141.48;100.00;69781.59;5235591;28;20032;-93
2022/04/27 00:43:05;;;;;;;9.25;8.60;;;;;;;-141.48;100.00;69781.59;5237385;28;20013;-91
2022/04/27 00:45:41;;;;;;;10.70;9.52;;;;;;;-141.48;100.00;69781.59;5237569;28;20035;-93
2022/04/27 00:48:14;;;;;;;11.77;9.85;;;;;;;-141.48;100.00;69781.59;5238246;28;20114;-93
2022/04/27 00:50:47;;;;;;;12.35;9.57;;;;;;;-141.48;100.00;69781.59;5238007;28;20016;-94
2022/04/27 00:53:20;;;;;;;9.55;8.85;;;;;;;-141.48;100.00;69781.59;5238251;28;20025;-94
2022/04/27 00:56:05;;;;;;;10.07;9.27;;;;;;;-141.48;100.00;69781.59;5237741;28;20032;-94
2022/04/27 00:58:39;;;;;;;9.48;8.70;;;;;;;-141.48;100.00;69781.59;5236662;28;20047;-94
2022/04/27 01:01:16;;;;;;;9.55;8.95;;;;;;;-141.48;100.00;69781.59;5234359;28;20028;-93
2022/04/27 01:03:47;;;;;;;9.75;8.93;;;;;;;-141.48;100.00;69781.59;5233323;28;20005;-93
2022/04/27 01:06:17;;;;;;;11.95;10.70;;;;;;;-141.48;100.00;69781.59;5235111;28;20013;-93
2022/04/27 01:08:48;;;;;;;9.02;8.05;;;;;;;-141.48;100.00;69781.59;5233630;28;20029;-94
2022/04/27 01:11:22;;;;;;;11.20;10.35;;;;;;;-141.48;100.00;69781.59;5234541;28;20009;-93
2022/04/27 01:13:57;;;;;;;10.95;10.13;;;;;;;-141.48;100.00;69781.59;5252354;28;20001;-95
2022/04/27 01:16:27;;;;;;;11.23;10.15;;;;;;;-141.48;100.00;69781.59;5236213;28;20174;-93
2022/04/27 01:18:58;;;;;;;9.95;9.23;;;;;;;-141.48;100.00;69781.59;5234601;28;20436;-94
2022/04/27 01:21:29;;;;;;;10.10;9.38;;;;;;;-141.48;100.00;69781.59;5235055;28;20013;-94
2022/04/27 01:24:00;;;;;;;15.52;11.00;;;;;;;-141.48;100.00;69781.59;5229125;28;20043;-94
2022/04/27 01:26:33;;;;;;;10.55;9.75;;;;;;;-141.48;100.00;69781.59;5229752;28;20096;-94
2022/04/27 01:29:04;;;;;;;12.05;11.05;;;;;;;-141.48;100.00;69781.59;5228038;28;20063;-94
2022/04/27 01:31:39;;;;;;;11.40;10.60;;;;;;;-141.48;100.00;69781.59;5246160;28;20040;-94
2022/04/27 01:34:10;;;;;;;10.70;9.70;;;;;;;-141.48;100.00;69781.59;5229025;28;20020;-94
2022/04/27 01:36:41;;;;;;;11.75;10.38;;;;;;;-141.48;100.00;69781.59;5233716;28;20040;-94
2022/04/27 01:39:11;;;;;;;11.00;10.25;;;;;;;-141.48;100.00;69781.59;5235217;28;20059;-92
2022/04/27 01:41:42;;;;;;;10.27;9.43;;;;;;;-141.48;100.00;69781.59;5233988;28;20005;-93
2022/04/27 01:44:13;;;;;;;10.55;9.63;;;;;;;-141.48;100.00;69781.59;5234751;28;20013;-94
2022/04/27 01:46:44;;;;;;;11.82;10.88;;;;;;;-141.48;100.00;69781.59;5233499;28;20056;-93
2022/04/27 01:49:14;;;;;;;12.52;11.25;;;;;;;-141.48;100.00;69781.59;5218243;28;20075;-93
2022/04/27 01:54:34;;;;;;;11.48;10.02;;;;;;;-141.48;100.00;69781.59;5247006;28;20044;-93
2022/04/27 01:57:05;;;;;;;11.68;10.68;;;;;;;-141.48;100.00;69781.59;5231729;28;20012;-92
2022/04/27 01:59:43;;;;;;;13.70;12.57;;;;;;;-141.48;100.00;69781.59;5231663;28;20074;-94
2022/04/27 02:02:17;;;;;;;11.43;10.57;;;;;;;-141.48;100.00;69781.59;5247773;28;20101;-93
2022/04/27 02:04:48;;;;;;;11.80;11.05;;;;;;;-141.48;100.00;69781.59;5230875;28;20063;-94
2022/04/27 02:07:19;;;;;;;12.10;11.35;;;;;;;-141.48;100.00;69781.59;5232253;28;20025;-92
2022/04/27 02:09:49;;;;;;;14.88;13.27;;;;;;;-141.48;100.00;69781.59;5232190;28;20001;-93
2022/04/27 02:12:20;;;;;;;17.65;11.77;;;;;;;-141.48;100.00;69781.59;5256299;22;20100;-57
2022/04/27 02:14:50;;;;;;;13.75;12.38;;;;;;;-141.48;100.00;69781.59;5188626;28;20018;-55
2022/04/27 02:17:20;;;;;;;12.55;11.45;;;;;;;-141.48;100.00;69781.59;5188893;28;20109;-55
2022/04/27 02:19:51;;;;;;;13.80;12.63;;;;;;;-141.48;100.00;69781.59;5189104;28;20041;-56
2022/04/27 02:22:21;;;;;;;14.52;13.40;;;;;;;-141.48;100.00;69781.59;5188955;28;20033;-60
2022/04/27 02:24:52;;;;;;;14.50;12.32;;;;;;;-141.48;100.00;69781.59;5188542;28;20493;-59
2022/04/27 02:27:22;;;;;;;14.57;13.30;;;;;;;-141.48;100.00;69781.59;5188929;28;20029;-59
2022/04/27 02:29:53;;;;;;;11.25;10.45;;;;;;;-141.48;100.00;69781.59;5188497;28;20029;-57
2022/04/27 02:32:23;;;;;;;17.45;13.15;;;;;;;-141.48;100.00;69781.59;5188340;28;20065;-57
2022/04/27 02:34:54;;;;;;;13.80;12.60;;;;;;;-141.48;100.00;69781.59;5188302;28;20017;-57
2022/04/27 02:37:24;;;;;;;13.23;12.15;;;;;;;-141.48;100.00;69781.59;5188621;28;20541;-57
2022/04/27 02:39:54;;;;;;;12.88;11.93;;;;;;;-141.48;100.00;69781.59;5188526;28;20029;-59
2022/04/27 02:42:26;;;;;;;14.82;13.30;;;;;;;-141.48;100.00;69781.59;5188705;28;20021;-57
2022/04/27 02:44:56;;;;;;;14.23;13.23;;;;;;;-141.48;100.00;69781.59;5188020;28;20036;-58
2022/04/27 02:47:27;;;;;;;15.05;13.80;;;;;;;-141.48;100.00;69781.59;5188538;28;20025;-58
2022/04/27 02:52:48;;;;;;;15.40;14.02;;;;;;;-141.48;100.00;69781.59;5206574;28;20128;-56
2022/04/27 02:55:18;;;;;;;14.18;13.07;;;;;;;-141.48;100.00;69781.59;5187732;28;20025;-56
2022/04/27 02:57:49;;;;;;;18.38;15.02;;;;;;;-141.48;100.00;69781.59;5188398;28;20033;-55
2022/04/27 03:00:19;;;;;;;15.77;14.50;;;;;;;-141.48;100.00;69781.59;5188124;28;20056;-57
2022/04/27 03:02:50;;;;;;;16.27;15.18;;;;;;;-141.48;100.00;69781.59;5187623;28;20029;-60
2022/04/27 03:05:20;;;;;;;17.23;15.85;;;;;;;-141.48;100.00;69781.59;5187480;28;20037;-57
2022/04/27 03:07:51;;;;;;;15.70;14.23;;;;;;;-141.48;100.00;69781.59;5188043;28;20120;-56
2022/04/27 03:10:21;;;;;;;16.05;14.65;;;;;;;-141.48;100.00;69781.59;5187972;28;20033;-58
2022/04/27 03:12:52;;;;;;;21.25;15.80;;;;;;;-141.48;100.00;69781.59;5187915;28;20406;-58
2022/04/27 03:15:22;;;;;;;15.57;14.38;;;;;;;-141.48;100.00;69781.59;5187511;28;20025;-59
2022/04/27 03:18:16;;;;;;;18.27;15.70;;;;;;;-141.48;100.00;69781.59;5187938;28;20033;-56
2022/04/27 03:20:43;;;;;;;16.63;15.32;;;;;;;-141.48;100.00;69781.59;5205475;28;20022;-56
2022/04/27 03:23:15;;;;;;;14.85;13.85;;;;;;;-141.48;100.00;69781.59;5205480;28;20029;-58
2022/04/27 03:25:45;;;;;;;17.52;15.90;;;;;;;-141.48;100.00;69781.59;5187832;28;20085;-58
2022/04/27 03:28:16;;;;;;;18.85;17.33;;;;;;;-141.48;100.00;69781.59;5187470;28;20071;-59
2022/04/27 03:30:49;;;;;;;16.70;15.50;;;;;;;-141.48;100.00;69781.59;5187216;28;20026;-58
2022/04/27 03:33:19;;;;;;;18.85;17.33;;;;;;;-141.48;100.00;69781.59;5186936;28;20037;-57
2022/04/27 03:35:50;;;;;;;18.02;16.25;;;;;;;-141.48;100.00;69781.59;5187522;28;20028;-58
2022/04/27 03:38:21;;;;;;;17.08;15.55;;;;;;;-141.48;100.00;69781.59;5187524;28;20041;-57
2022/04/27 03:40:51;;;;;;;23.17;18.77;;;;;;;-141.48;100.00;69781.59;5187917;28;20017;-56
2022/04/27 03:43:22;;;;;;;22.05;20.25;;;;;;;-141.48;100.00;69781.59;5186939;28;20208;-60
2022/04/27 03:45:52;;;;;;;21.77;19.50;;;;;;;-141.48;100.00;69781.59;5187585;28;20022;-60
2022/04/27 03:48:23;;;;;;;18.77;17.00;;;;;;;-141.48;100.00;69781.59;5205627;28;20025;-58
2022/04/27 03:50:53;;;;;;;21.40;19.40;;;;;;;-141.48;100.00;69781.59;5187544;28;20037;-57
2022/04/27 03:53:24;;;;;;;18.30;16.77;;;;;;;-141.48;100.00;69781.59;5187735;28;20053;-55
2022/04/27 03:55:54;;;;;;;17.25;15.95;;;;;;;-141.48;100.00;69781.59;5187540;28;20036;-58
2022/04/27 03:58:25;;;;;;;19.33;17.27;;;;;;;-141.48;100.00;69781.59;5204832;28;20033;-59
2022/04/27 04:00:55;;;;;;;20.40;18.67;;;;;;;-141.48;100.00;69781.59;5187243;28;20397;-58
2022/04/27 04:03:26;;;;;;;19.48;17.73;;;;;;;-141.48;100.00;69781.59;5205082;28;20371;-58
2022/04/27 04:05:56;;;;;;;18.65;16.95;;;;;;;-141.48;100.00;69781.59;5187546;28;20025;-57
2022/04/27 04:08:26;;;;;;;19.00;17.38;;;;;;;-141.48;100.00;69781.59;5186935;28;20221;-59
2022/04/27 04:10:57;;;;;;;20.25;18.67;;;;;;;-141.48;100.00;69781.59;5205246;28;20029;-58
2022/04/27 04:13:28;;;;;;;22.30;19.35;;;;;;;-141.48;100.00;69781.59;5186753;28;20405;-60
2022/04/27 04:15:58;;;;;;;24.48;22.27;;;;;;;-141.48;100.00;69781.59;5190690;28;20021;-57
2022/04/27 04:18:29;;;;;;;21.27;19.27;;;;;;;-141.48;100.00;69781.59;5191084;28;20120;-56
2022/04/27 04:20:59;;;;;;;20.60;18.63;;;;;;;-141.48;100.00;69781.59;5190868;28;20048;-58
2022/04/27 04:23:30;;;;;;;20.90;19.25;;;;;;;-141.48;100.00;69781.59;5191285;28;20433;-56
2022/04/27 04:28:49;;;;;;;26.35;23.92;;;;;;;-141.48;100.00;69781.59;5208829;28;20035;-56
2022/04/27 04:31:20;;;;;;;25.52;23.08;;;;;;;-141.48;100.00;69781.59;5187181;28;20309;-57
2022/04/27 04:33:50;;;;;;;20.85;19.17;;;;;;;-141.48;100.00;69781.59;5189815;28;20144;-56
2022/04/27 04:36:21;;;;;;;22.83;20.67;;;;;;;-141.48;100.00;69781.59;5190928;28;20112;-57
2022/04/27 04:38:51;;;;;;;23.10;21.05;;;;;;;-141.48;100.00;69781.59;5190802;28;20068;-59
2022/04/27 04:41:22;;;;;;;23.48;21.25;;;;;;;-141.48;100.00;69781.59;5174116;28;20076;-59
2022/04/27 04:43:52;;;;;;;21.75;20.02;;;;;;;-141.48;100.00;69781.59;5190048;28;20053;-58
2022/04/27 04:46:23;;;;;;;25.13;22.70;;;;;;;-141.48;100.00;69781.59;5190849;28;20194;-60
2022/04/27 04:48:53;;;;;;;24.00;21.33;;;;;;;-141.48;100.00;69781.59;5190570;28;20064;-59
2022/04/27 04:51:24;;;;;;;24.10;22.00;;;;;;;-141.48;100.00;69781.59;5190097;28;20498;-59
2022/04/27 04:53:54;;;;;;;25.35;23.30;;;;;;;-141.48;100.00;69781.59;5190093;28;20112;-59
2022/04/27 04:56:25;;;;;;;22.42;20.63;;;;;;;-141.48;100.00;69781.59;5207853;28;20025;-59
2022/04/27 04:58:56;;;;;;;26.95;24.67;;;;;;;-141.48;100.00;69781.59;5207878;28;20030;-59
2022/04/27 05:01:26;;;;;;;29.58;24.42;;;;;;;-141.48;100.00;69781.59;5207600;28;20018;-62
2022/04/27 05:03:56;;;;;;;25.77;23.15;;;;;;;-141.48;100.00;69781.59;5189806;28;20061;-57
2022/04/27 05:06:27;;;;;;;23.65;21.40;;;;;;;-141.48;100.00;69781.59;5208153;28;20025;-59
2022/04/27 05:08:57;;;;;;;25.58;23.13;;;;;;;-141.48;100.00;69781.59;5190309;28;20049;-58
2022/04/27 05:11:28;;;;;;;25.17;22.60;;;;;;;-141.48;100.00;69781.59;5189558;28;20355;-57
2022/04/27 05:13:59;;;;;;;27.20;24.42;;;;;;;-141.48;100.00;69781.59;5189910;28;20404;-60
2022/04/27 05:16:31;;;;;;;22.73;20.80;;;;;;;-141.48;100.00;69781.59;5190396;28;20033;-59
2022/04/27 05:19:01;;;;;;;31.30;23.42;;;;;;;-141.48;100.00;69781.59;5190045;28;20029;-61
2022/04/27 05:21:32;;;;;;;22.83;20.77;;;;;;;-141.48;100.00;69781.59;5189829;28;20072;-59
2022/04/27 05:24:03;;;;;;;24.55;22.30;;;;;;;-141.48;100.00;69781.59;5189357;28;20370;-57
2022/04/27 05:26:34;;;;;;;24.40;22.15;;;;;;;-141.48;100.00;69781.59;5189121;28;20087;-58
2022/04/27 05:31:58;;;;;;;23.85;21.83;;;;;;;-141.48;100.00;69781.59;5207712;28;20575;-59
2022/04/27 05:34:33;;;;;;;25.85;23.70;;;;;;;-141.48;100.00;69781.59;5187399;28;20125;-60
2022/04/27 05:37:04;;;;;;;23.58;21.42;;;;;;;-141.48;100.00;69781.59;5189517;28;20029;-59
2022/04/27 05:39:35;;;;;;;23.65;21.65;;;;;;;-141.48;100.00;69781.59;5189437;28;20025;-60
2022/04/27 05:42:06;;;;;;;21.30;19.27;;;;;;;-141.48;100.00;69781.59;5188878;28;20366;-58
2022/04/27 05:44:37;;;;;;;23.13;21.08;;;;;;;-141.48;100.00;69781.59;5189131;28;20117;-59
2022/04/27 05:47:08;;;;;;;23.48;21.42;;;;;;;-141.48;100.00;69781.59;5189420;28;20030;-56
2022/04/27 05:49:38;;;;;;;24.08;22.10;;;;;;;-141.48;100.00;69781.59;5187550;28;20029;-58
2022/04/27 05:52:09;;;;;;;21.90;20.05;;;;;;;-141.48;100.00;69781.59;5188250;28;20031;-55
2022/04/27 05:54:39;;;;;;;26.35;23.63;;;;;;;-141.48;100.00;69781.59;5189014;28;20067;-62
2022/04/27 05:57:10;;;;;;;21.27;19.27;;;;;;;-141.48;100.00;69781.59;5189238;28;20026;-59
2022/04/27 05:59:43;;;;;;;21.52;19.63;;;;;;;-141.48;100.00;69781.59;5207124;28;20469;-58
2022/04/27 06:02:14;;;;;;;19.63;18.02;;;;;;;-141.48;100.00;69781.59;5189793;28;20026;-62
2022/04/27 06:04:45;;;;;;;20.63;18.45;;;;;;;-141.48;100.00;69781.59;5188997;28;20032;-58
2022/04/27 06:07:16;;;;;;;19.75;17.60;;;;;;;-141.48;100.00;69781.59;5189159;28;20026;-61
2022/04/27 06:09:46;;;;;;;19.40;17.65;;;;;;;-141.48;100.00;69781.59;5189436;28;20477;-59
2022/04/27 06:12:18;;;;;;;20.52;18.60;;;;;;;-141.48;100.00;69781.59;5189286;28;20405;-57
2022/04/27 06:14:48;;;;;;;19.58;17.88;;;;;;;-141.48;100.00;69781.59;5189602;28;20554;-63
2022/04/27 06:17:19;;;;;;;20.13;18.33;;;;;;;-141.48;100.00;69781.59;5189375;28;20025;-59
2022/04/27 06:19:49;;;;;;;19.70;16.83;;;;;;;-141.48;100.00;69781.59;5189115;28;20481;-59
2022/04/27 06:22:20;;;;;;;20.80;18.35;;;;;;;-141.48;100.00;69781.59;5189157;28;20083;-58
2022/04/27 06:24:51;;;;;;;23.85;17.92;;;;;;;-141.48;100.00;69781.59;5188687;28;20123;-61
2022/04/27 06:27:22;;;;;;;17.02;15.30;;;;;;;-141.48;100.00;69781.59;5188954;28;20109;-59
2022/04/27 06:29:52;;;;;;;22.10;16.35;;;;;;;-141.48;100.00;69781.59;5188547;28;20389;-57
2022/04/27 06:32:23;;;;;;;21.15;18.45;;;;;;;-141.48;100.00;69781.59;5188983;28;20116;-56
2022/04/27 06:34:53;;;;;;;16.63;14.70;;;;;;;-141.48;100.00;69781.59;5188284;28;20025;-61
2022/04/27 06:37:25;;;;;;;19.25;17.58;;;;;;;-141.48;100.00;69781.59;5171638;28;20089;-57
2022/04/27 06:39:56;;;;;;;16.30;14.90;;;;;;;-141.48;100.00;69781.59;5206038;28;20485;-61
2022/04/27 06:42:26;;;;;;;16.67;15.38;;;;;;;-141.48;100.00;69781.59;5188628;28;20112;-58
2022/04/27 06:45:01;;;;;;;23.70;14.55;;;;;;;-141.48;100.00;69781.59;5188714;28;20448;-57
2022/04/27 06:47:32;;;;;;;15.18;13.38;;;;;;;-141.48;100.00;69781.59;5206449;28;20547;-56
2022/04/27 06:50:03;;;;;;;14.23;13.13;;;;;;;-141.48;100.00;69781.59;5188608;28;20025;-62
2022/04/27 06:52:41;;;;;;;14.75;13.75;;;;;;;-141.48;100.00;69781.59;5206316;28;20112;-59
2022/04/27 06:55:12;;;;;;;14.23;13.02;;;;;;;-141.48;100.00;69781.59;5188053;28;20067;-59
2022/04/27 06:57:43;;;;;;;15.13;13.77;;;;;;;-141.48;100.00;69781.59;5188849;28;20508;-59
2022/04/27 07:00:14;;;;;;;15.27;13.90;;;;;;;-141.48;100.00;69781.59;5188306;28;20022;-59
2022/04/27 07:02:45;;;;;;;15.48;13.80;;;;;;;-141.48;100.00;69781.59;5188370;28;20041;-60
2022/04/27 07:05:20;;;;;;;15.65;14.13;;;;;;;-141.48;100.00;69781.59;5187613;28;20393;-57
2022/04/27 07:07:51;;;;;;;15.40;13.80;;;;;;;-141.48;100.00;69781.59;5206064;28;20040;-58
2022/04/27 07:10:21;;;;;;;16.70;15.27;;;;;;;-141.48;100.00;69781.59;5188074;28;20026;-60
2022/04/27 07:12:52;;;;;;;14.50;13.27;;;;;;;-141.48;100.00;69781.59;5205629;28;20036;-60
2022/04/27 07:15:23;;;;;;;13.07;11.95;;;;;;;-141.48;100.00;69781.59;5175701;28;20026;-59
2022/04/27 07:17:53;;;;;;;13.63;12.30;;;;;;;-141.48;100.00;69781.59;5173595;28;20397;-58
2022/04/27 07:20:24;;;;;;;12.95;11.10;;;;;;;-141.48;100.00;69781.59;5205564;28;20025;-59
2022/04/27 07:22:54;;;;;;;11.18;10.23;;;;;;;-141.48;100.00;69781.59;5187732;28;20029;-59
2022/04/27 07:25:25;;;;;;;11.13;10.30;;;;;;;-141.48;100.00;69781.59;5187357;28;20025;-61
2022/04/27 07:27:55;;;;;;;11.15;10.20;;;;;;;-141.48;100.00;69781.59;5205838;28;20080;-57
2022/04/27 07:30:26;;;;;;;14.02;10.52;;;;;;;-141.48;100.00;69781.59;5187840;28;20021;-59
2022/04/27 07:32:57;;;;;;;9.75;8.95;;;;;;;-141.48;100.00;69781.59;5205895;28;20108;-60
2022/04/27 07:35:27;;;;;;;8.60;7.93;;;;;;;-141.48;100.00;69781.59;5205492;28;20033;-59
2022/04/27 07:37:58;;;;;;;10.43;9.07;;;;;;;-141.48;100.00;69781.59;5205661;28;20067;-59
2022/04/27 07:40:28;;;;;;;8.98;8.27;;;;;;;-141.48;100.00;69781.59;5187668;28;20026;-59
2022/04/27 07:42:59;;;;;;;7.82;7.32;;;;;;;-141.48;100.00;69781.59;5187743;28;20071;-57
2022/04/27 07:45:29;;;;;;;9.00;8.50;;;;;;;-141.48;100.00;69781.59;5187668;28;20056;-58
2022/04/27 07:48:00;;;;;;;15.93;8.25;;;;;;;-141.48;100.00;69781.59;5188155;28;20031;-58
2022/04/27 07:50:30;;;;;;;10.57;7.75;;;;;;;-141.48;100.00;69781.59;5191907;28;20067;-56
2022/04/27 07:53:01;;;;;;;8.35;7.55;;;;;;;-141.48;100.00;69781.59;5192195;28;20025;-58
2022/04/27 07:55:35;;;;;;;8.27;7.60;;;;;;;-141.48;100.00;69781.59;5191854;28;20022;-60
2022/04/27 07:58:06;;;;;;;8.32;7.72;;;;;;;-141.48;100.00;69781.59;5191703;28;20030;-58
2022/04/27 08:00:36;;;;;;;8.70;6.40;;;;;;;-141.48;100.00;69781.59;5191595;28;20021;-58
2022/04/27 08:03:07;;;;;;;8.90;8.02;;;;;;;-141.48;100.00;69781.59;5191736;28;20485;-58
2022/04/27 08:05:38;;;;;;;7.53;5.80;;;;;;;-141.48;100.00;69781.59;5209420;28;20025;-56
2022/04/27 08:08:08;;;;;;;11.88;7.65;;;;;;;-141.48;100.00;69781.59;5191503;28;20041;-58
2022/04/27 08:10:39;;;;;;;8.50;7.63;;;;;;;-141.48;100.00;69781.59;5191488;28;20025;-59
2022/04/27 08:13:10;;;;;;;8.05;7.35;;;;;;;-141.48;100.00;69781.59;5233495;23;20051;-58
2022/04/27 08:15:40;;;;;;;6.43;6.03;;;;;;;-141.48;100.00;69781.59;5227174;28;20399;-58
2022/04/27 08:18:11;;;;;;;6.30;5.72;;;;;;;-141.48;100.00;69781.59;5227510;28;20032;-57
2022/04/27 08:23:34;;;;;;;6.03;5.53;;;;;;;-141.48;100.00;69781.59;5228673;28;20087;-57
2022/04/27 08:26:06;;;;;;;5.93;5.22;;;;;;;-141.48;100.00;69781.59;5227440;28;20025;-54
2022/04/27 08:28:37;;;;;;;6.57;5.90;;;;;;;-141.48;100.00;69781.59;5225401;28;20029;-57
2022/04/27 08:31:09;;;;;;;6.22;5.82;;;;;;;-141.48;100.00;69781.59;5210284;28;20026;-58
2022/04/27 08:33:40;;;;;;;4.85;4.10;;;;;;;-141.48;100.00;69781.59;5210224;28;20500;-58
2022/04/27 08:36:10;;;;;;;5.63;5.22;;;;;;;-141.48;100.00;69781.59;5207119;28;20022;-58
2022/04/27 08:38:41;;;;;;;8.30;4.55;;;;;;;-141.48;100.00;69781.59;5206317;28;20115;-60
2022/04/27 08:41:11;;;;;;;15.18;5.13;;;;;;;-141.48;100.00;69781.59;5206398;28;20053;-58
2022/04/27 08:43:42;;;;;;;4.18;3.83;;;;;;;-141.48;100.00;69781.59;5206301;28;20111;-57
2022/04/27 08:46:15;;;;;;;10.75;6.13;;;;;;;-141.48;100.00;69781.59;5206106;28;20412;-58
2022/04/27 08:48:49;;;;;;;4.75;4.47;;;;;;;-141.48;100.00;69781.59;5203909;28;20044;-57
2022/04/27 08:51:19;;;;;;;6.10;5.03;;;;;;;-141.48;100.00;69781.59;5205945;28;20021;-57
2022/04/27 08:53:50;;;;;;;4.53;4.32;;;;;;;-141.48;100.00;69781.59;5206039;28;20389;-57
2022/04/27 08:56:21;;;;;;;5.38;5.07;;;;;;;-141.48;100.00;69781.59;5207459;28;20392;-58
2022/04/27 08:58:51;;;;;;;6.25;4.95;;;;;;;-141.48;100.00;69781.59;5206239;28;20025;-58
2022/04/27 09:01:22;;;;;;;7.50;6.25;;;;;;;-141.48;100.00;69781.59;5204989;28;20024;-58
2022/04/27 09:03:52;;;;;;;5.47;5.07;;;;;;;-141.48;100.00;69781.59;5205473;28;20221;-57
2022/04/27 09:06:38;;;;;;;4.95;4.18;;;;;;;-141.48;100.00;69781.59;5205818;28;20018;-57
2022/04/27 09:09:29;;;;;;;5.00;4.60;;;;;;;-141.48;100.00;69781.59;5205897;28;20524;-57
2022/04/27 09:12:02;;;;;;;4.85;4.55;;;;;;;-141.48;100.00;69781.59;5206019;28;20084;-55
2022/04/27 09:14:37;;;;;;;5.00;4.70;;;;;;;-141.48;100.00;69781.59;5205356;28;20091;-55
2022/04/27 09:23:19;;;;;;;4.88;4.47;;;;;;;-141.48;100.00;69781.59;5207503;28;20056;-55
2022/04/27 09:25:51;;;;;;;6.22;5.25;;;;;;;-141.48;100.00;69781.59;5206155;28;20394;-55
2022/04/27 09:28:23;;;;;;;5.10;4.57;;;;;;;-141.48;100.00;69781.59;5206564;28;20033;-55
2022/04/27 09:30:55;;;;;;;6.43;6.03;;;;;;;-141.48;100.00;69781.59;5206453;28;20487;-57
2022/04/27 09:33:34;;;;;;;12.50;6.60;;;;;;;-141.48;100.00;69781.59;5207364;28;20021;-58
2022/04/27 09:36:23;;;;;;;5.75;4.80;;;;;;;-141.48;100.00;69781.59;5206676;28;20079;-58
2022/04/27 09:38:56;;;;;;;6.38;5.95;;;;;;;-141.48;100.00;69781.59;5205418;28;20087;-57
2022/04/27 09:41:41;;;;;;;7.13;6.45;;;;;;;-141.48;100.00;69781.59;5205073;28;20486;-55
2022/04/27 09:44:30;;;;;;;6.63;6.13;;;;;;;-141.48;100.00;69781.59;5204782;28;20401;-56
2022/04/27 09:47:05;;;;;;;7.65;5.35;;;;;;;-141.48;100.00;69781.59;5204988;28;20068;-56
2022/04/27 09:49:37;;;;;;;6.10;5.80;;;;;;;-141.48;100.00;69781.59;5204741;28;20029;-59
2022/04/27 09:52:07;;;;;;;6.03;5.50;;;;;;;-141.48;100.00;69781.59;5204739;28;20033;-58
2022/04/27 09:54:42;;;;;;;5.80;5.38;;;;;;;-141.48;100.00;69781.59;5204699;28;20039;-58
2022/04/27 09:57:16;;;;;;;6.78;6.10;;;;;;;-141.48;100.00;69781.59;5204988;28;20094;-59
2022/04/27 09:59:48;;;;;;;5.22;4.93;;;;;;;-141.48;100.00;69781.59;5208332;28;20381;-58
2022/04/27 10:02:25;;;;;;;6.93;6.18;;;;;;;-141.48;100.00;69781.59;5203635;28;20087;-60
2022/04/27 10:04:59;;;;;;;7.60;6.97;;;;;;;-141.48;100.00;69781.59;5203818;28;20365;-58
2022/04/27 10:07:32;;;;;;;6.07;5.63;;;;;;;-141.48;100.00;69781.59;5204561;28;20044;-59
2022/04/27 10:10:04;;;;;;;6.28;5.68;;;;;;;-141.48;100.00;69781.59;5204297;28;20029;-58
2022/04/27 10:12:38;;;;;;;5.45;5.05;;;;;;;-141.48;100.00;69781.59;5203881;28;20037;-58
2022/04/27 10:15:08;;;;;;;7.43;6.82;;;;;;;-141.48;100.00;69781.59;5203944;28;20436;-58
2022/04/27 10:17:40;;;;;;;6.65;6.20;;;;;;;-141.48;100.00;69781.59;5204174;28;20075;-59
2022/04/27 10:20:32;;;;;;;6.18;5.68;;;;;;;-141.48;100.00;69781.59;5204007;28;20033;-59
2022/04/27 10:23:21;;;;;;;7.15;5.28;;;;;;;-141.48;100.00;69781.59;5203851;28;20021;-58
2022/04/27 10:26:08;;;;;;;5.55;5.15;;;;;;;-141.48;100.00;69781.59;5204141;28;20040;-59
2022/04/27 10:32:08;;;;;;;8.15;6.68;;;;;;;-141.48;100.00;69781.59;5207178;28;20048;-59
2022/04/27 10:34:39;;;;;;;8.48;5.47;;;;;;;-141.48;100.00;69781.59;5203910;28;20036;-57
2022/04/27 10:37:09;;;;;;;8.32;6.22;;;;;;;-141.48;100.00;69781.59;5204022;28;20025;-57
2022/04/27 10:39:43;;;;;;;8.95;6.43;;;;;;;-141.48;100.00;69781.59;5203640;28;20024;-56
2022/04/27 10:42:20;;;;;;;5.50;5.10;;;;;;;-141.48;100.00;69781.59;5204023;28;20029;-58
2022/04/27 10:44:51;;;;;;;7.05;6.47;;;;;;;-141.48;100.00;69781.59;5203386;28;20030;-58
2022/04/27 10:47:23;;;;;;;5.68;5.28;;;;;;;-141.48;100.00;69781.59;5204837;28;20493;-58
2022/04/27 10:50:15;;;;;;;6.25;5.85;;;;;;;-141.48;100.00;69781.59;5203470;28;20026;-57
2022/04/27 10:52:55;;;;;;;7.65;6.60;;;;;;;-141.48;100.00;69781.59;5203875;28;20115;-58
2022/04/27 10:55:34;;;;;;;8.27;7.45;;;;;;;-141.48;100.00;69781.59;5203245;28;20025;-56
2022/04/27 10:58:23;;;;;;;6.35;5.95;;;;;;;-141.48;100.00;69781.59;5203617;28;20037;-58
2022/04/27 11:01:02;;;;;;;5.63;5.22;;;;;;;-141.48;100.00;69781.59;5203469;28;20470;-57
2022/04/27 11:03:38;;;;;;;6.63;6.18;;;;;;;-141.48;100.00;69781.59;5202970;28;20034;-58
2022/04/27 11:06:11;;;;;;;8.40;5.70;;;;;;;-141.48;100.00;69781.59;5203369;28;20030;-59
2022/04/27 11:09:02;;;;;;;7.85;6.22;;;;;;;-141.48;100.00;69781.59;5203406;28;20029;-57
2022/04/27 11:11:35;;;;;;;6.80;5.22;;;;;;;-141.48;100.00;69781.59;5202486;28;20075;-59
2022/04/27 11:14:13;;;;;;;6.22;5.03;;;;;;;-141.48;100.00;69781.59;5202822;28;20037;-58
2022/04/27 11:16:47;;;;;;;11.38;6.28;;;;;;;-141.48;100.00;69781.59;5203471;28;20506;-59
2022/04/27 11:19:18;;;;;;;9.98;7.07;;;;;;;-141.48;100.00;69781.59;5204555;28;20112;-58
2022/04/27 11:21:50;;;;;;;5.90;5.38;;;;;;;-141.48;100.00;69781.59;5203208;28;20113;-57
2022/04/27 11:24:22;;;;;;;6.78;6.25;;;;;;;-141.48;100.00;69781.59;5202427;28;20025;-59
2022/04/27 11:26:53;;;;;;;7.75;7.15;;;;;;;-141.48;100.00;69781.59;5203008;28;20033;-56
2022/04/27 11:29:25;;;;;;;6.63;6.00;;;;;;;-141.48;100.00;69781.59;5203493;28;20052;-59
2022/04/27 11:31:55;;;;;;;6.90;6.35;;;;;;;-141.48;100.00;69781.59;5203227;28;20028;-59
2022/04/27 11:34:27;;;;;;;8.07;7.10;;;;;;;-141.48;100.00;69781.59;5202587;28;20393;-58
2022/04/27 11:37:21;;;;;;;7.28;6.45;;;;;;;-141.48;100.00;69781.59;5202822;28;20461;-58
2022/04/27 11:39:51;;;;;;;8.40;6.57;;;;;;;-141.48;100.00;69781.59;5202884;28;20448;-55
2022/04/27 11:42:22;;;;;;;7.32;6.72;;;;;;;-141.48;100.00;69781.59;5202855;28;20029;-57
2022/04/27 11:44:53;;;;;;;6.65;6.05;;;;;;;-141.48;100.00;69781.59;5202402;28;20401;-59
2022/04/27 11:47:31;;;;;;;6.95;6.40;;;;;;;-141.48;100.00;69781.59;5202575;28;20036;-54